South Croydon, United Kingdom
Current Conditions -  °F | °C
As of 4:20 PM on Wednesday 28 Jan 2015 (Local Time) from EGKB Reporting Station
Few Clouds Few Clouds  
Wind Chill: 30°   Ceiling: Unl
Heat Index: 39°   Visibility: 6mi
Dew Point: 23°   Wind: 16mph
Humidity: 52%   Direction: 280°W
Pressure: 29.59"   Gusts: NA
Location:  51.35°N, 0.09°W
Report Text: EGKB 281620Z 28014KT 250V310 9999 FEW030 04/M05 Q1002
Loading
Personal Weather Stations






























Interactive Weather Map New forecast layout! Learn more

10-Day Weather Forecast

Advertisements
Track Severe Weather on mobile